Delta Ocean — SVAU9 — position and weather

sailwx.info

Track history (hours):
 
Tides and Currents Weather Stations Pressure Air Temp Water Temp Dewpoint Dewpoint Depression Visibility Wind Speed Wind Dir Waves Ship Positions

Delta Ocean

Last reported at 2014-Sep-02 00:33 UTC. Time now 2014-Sep-03 07:28 UTC.
Position N 36°28' E 014°20'.

Length 274 m; draft 15.6 m.

Type: Ship (hazmat cat A). MMSI: 240958000.

Date/timePositionNaut miles runAvg speedWind from/ knotsBaromVisibWave heightAir tempDewpointWater temp
2014-Sep-02 00:33N 36°28' E 014°20'1010.0
2014-Sep-01 23:33N 36°31' E 014°08'10 9.9
2014-Sep-01 22:33N 36°34' E 013°56'1010.0
2014-Sep-01 21:33N 36°36' E 013°44'10410.1
2014-Sep-01 11:13N 37°09' E 011°40'1710.1
2014-Sep-01 09:33N 37°17' E 011°22'10510.2
2014-Aug-31 23:17N 37°50' E 009°17'1010.5
2014-Aug-31 22:22N 37°51' E 009°05'910.5
2014-Aug-31 21:32N 37°52' E 008°54'1010.4
2014-Aug-31 20:32N 37°50' E 008°41'1010.4
2014-Aug-31 19:32N 37°50' E 008°28'1010.3
2014-Aug-31 18:33N 37°49' E 008°15'1310.4
2014-Aug-31 17:18N 37°48' E 007°58'14310.4
2014-Aug-31 03:32N 37°32' E 004°59'1010.4
2014-Aug-31 02:33N 37°31' E 004°46'1110.3
2014-Aug-31 01:26N 37°29' E 004°32'910.2
2014-Aug-31 00:33N 37°28' E 004°20'1210.4
2014-Aug-30 23:23N 37°26' E 004°05'910.6
2014-Aug-30 22:33N 37°24' E 003°54'1110.3
2014-Aug-30 21:30N 37°22' E 003°41'1010.5
2014-Aug-30 20:33N 37°21' E 003°28'1410.5
2014-Aug-30 19:16N 37°19' E 003°11'3210.5
2014-Aug-30 16:10N 37°14' E 002°31'10110.4
2014-Aug-30 06:30N 36°51' E 000°29'3410.5
2014-Aug-30 03:17N 36°42' W 000°12'810.4
2014-Aug-30 02:32N 36°40' W 000°22'1010.3
2014-Aug-30 01:33N 36°37' W 000°34'1110.4
2014-Aug-30 00:30N 36°35' W 000°47'1010.4
2014-Aug-29 23:33N 36°32' W 000°59'1110.4
2014-Aug-29 22:28N 36°29' W 001°12'1110.5
2014-Aug-29 21:25N 36°26' W 001°26'910.5
2014-Aug-29 20:33N 36°24' W 001°37'1010.4
2014-Aug-29 19:33N 36°21' W 001°49'1010.5
2014-Aug-29 18:33N 36°19' W 002°02'1110.5
2014-Aug-29 17:33N 36°17' W 002°15'1110.5
2014-Aug-29 16:32N 36°16' W 002°28'13911.5
2014-Aug-29 04:29N 35°59' W 005°19'5010.2
2014-Aug-28 23:34N 35°39' W 006°15'3710.5
2014-Aug-28 20:05N 35°14' W 006°48'1610.6
2014-Aug-28 18:34N 35°02' W 007°01'1110.6
2014-Aug-28 17:33N 34°55' W 007°11'  
Track history (hours):
 
Tides and Currents Weather Stations Pressure Air Temp Water Temp Dewpoint Dewpoint Depression Visibility Wind Speed Wind Dir Waves Ship Positions

Delta Ocean

Last reported at 2014-Sep-02 00:33 UTC. Time now 2014-Sep-03 07:28 UTC.
Position N 36°28' E 014°20'.

Length 274 m; draft 15.6 m.

Type: Ship (hazmat cat A). MMSI: 240958000.

Date/timePositionNaut miles runAvg speedWind from/ knotsBaromVisibWave heightAir tempDewpointWater temp
2014-Sep-02 00:33N 36°28' E 014°20'1010.0
2014-Sep-01 23:33N 36°31' E 014°08'10 9.9
2014-Sep-01 22:33N 36°34' E 013°56'1010.0
2014-Sep-01 21:33N 36°36' E 013°44'10410.1
2014-Sep-01 11:13N 37°09' E 011°40'1710.1
2014-Sep-01 09:33N 37°17' E 011°22'10510.2
2014-Aug-31 23:17N 37°50' E 009°17'1010.5
2014-Aug-31 22:22N 37°51' E 009°05'910.5
2014-Aug-31 21:32N 37°52' E 008°54'1010.4
2014-Aug-31 20:32N 37°50' E 008°41'1010.4
2014-Aug-31 19:32N 37°50' E 008°28'1010.3
2014-Aug-31 18:33N 37°49' E 008°15'1310.4
2014-Aug-31 17:18N 37°48' E 007°58'14310.4
2014-Aug-31 03:32N 37°32' E 004°59'1010.4
2014-Aug-31 02:33N 37°31' E 004°46'1110.3
2014-Aug-31 01:26N 37°29' E 004°32'910.2
2014-Aug-31 00:33N 37°28' E 004°20'1210.4
2014-Aug-30 23:23N 37°26' E 004°05'910.6
2014-Aug-30 22:33N 37°24' E 003°54'1110.3
2014-Aug-30 21:30N 37°22' E 003°41'1010.5
2014-Aug-30 20:33N 37°21' E 003°28'1410.5
2014-Aug-30 19:16N 37°19' E 003°11'3210.5
2014-Aug-30 16:10N 37°14' E 002°31'10110.4
2014-Aug-30 06:30N 36°51' E 000°29'3410.5
2014-Aug-30 03:17N 36°42' W 000°12'810.4
2014-Aug-30 02:32N 36°40' W 000°22'1010.3
2014-Aug-30 01:33N 36°37' W 000°34'1110.4
2014-Aug-30 00:30N 36°35' W 000°47'1010.4
2014-Aug-29 23:33N 36°32' W 000°59'1110.4
2014-Aug-29 22:28N 36°29' W 001°12'1110.5
2014-Aug-29 21:25N 36°26' W 001°26'910.5
2014-Aug-29 20:33N 36°24' W 001°37'1010.4
2014-Aug-29 19:33N 36°21' W 001°49'1010.5
2014-Aug-29 18:33N 36°19' W 002°02'1110.5
2014-Aug-29 17:33N 36°17' W 002°15'1110.5
2014-Aug-29 16:32N 36°16' W 002°28'13911.5
2014-Aug-29 04:29N 35°59' W 005°19'5010.2
2014-Aug-28 23:34N 35°39' W 006°15'3710.5
2014-Aug-28 20:05N 35°14' W 006°48'1610.6
2014-Aug-28 18:34N 35°02' W 007°01'1110.6
2014-Aug-28 17:33N 34°55' W 007°11'  

Dump ship's entire track history